createdAt,value
2022-09-30T00:02:12.670Z,7.75
2022-09-30T00:04:44.620Z,6.90
2022-09-30T00:07:16.635Z,6.80
2022-09-30T00:09:48.803Z,7.40
2022-09-30T00:12:21.001Z,7.25
2022-09-30T00:14:52.905Z,7.85
2022-09-30T00:17:25.021Z,7.60
2022-09-30T00:19:57.176Z,6.95
2022-09-30T00:22:29.149Z,7.05
2022-09-30T00:25:01.166Z,6.45
2022-09-30T00:27:33.312Z,6.55
2022-09-30T00:30:05.650Z,6.72
2022-09-30T00:32:37.625Z,6.78
2022-09-30T00:35:09.745Z,7.20
2022-09-30T00:37:41.677Z,6.67
2022-09-30T00:40:13.586Z,6.72
2022-09-30T00:42:46.356Z,6.50
2022-09-30T00:45:21.743Z,6.58
2022-09-30T00:48:00.942Z,7.10
2022-09-30T00:50:52.585Z,6.30
2022-09-30T00:53:39.273Z,6.00
2022-09-30T00:56:13.956Z,6.37
2022-09-30T00:58:57.682Z,6.33
2022-09-30T01:01:29.908Z,6.33
2022-09-30T01:04:04.839Z,6.00
2022-09-30T01:06:36.808Z,6.47
2022-09-30T01:09:09.628Z,6.60
2022-09-30T01:11:41.585Z,6.20
2022-09-30T01:14:19.283Z,6.72
2022-09-30T01:17:03.010Z,6.42
2022-09-30T01:20:03.642Z,6.20
2022-09-30T01:22:42.086Z,6.10
2022-09-30T01:25:46.972Z,6.12
2022-09-30T01:28:27.260Z,6.37
2022-09-30T01:31:24.616Z,6.80
2022-09-30T01:34:21.925Z,6.00
2022-09-30T01:37:05.827Z,6.28
2022-09-30T01:40:08.577Z,6.15
2022-09-30T01:42:43.554Z,6.33
2022-09-30T01:45:21.294Z,5.85
2022-09-30T01:47:56.087Z,6.45
2022-09-30T01:50:45.815Z,6.80
2022-09-30T01:53:23.720Z,6.30
2022-09-30T01:55:58.828Z,7.40
2022-09-30T01:58:33.708Z,6.60
2022-09-30T02:01:08.663Z,6.53
2022-09-30T02:03:52.678Z,6.65
2022-09-30T02:06:27.551Z,6.30
2022-09-30T02:09:08.013Z,6.35
2022-09-30T02:11:42.469Z,6.90
2022-09-30T02:16:53.541Z,6.15
2022-09-30T02:19:40.245Z,7.03
2022-09-30T02:22:21.271Z,6.30
2022-09-30T02:24:59.084Z,5.97
2022-09-30T02:27:37.206Z,7.08
2022-09-30T02:30:11.961Z,7.12
2022-09-30T02:32:49.691Z,6.83
2022-09-30T02:35:30.416Z,6.80
2022-09-30T02:38:06.484Z,6.37
2022-09-30T02:40:49.058Z,6.83
2022-09-30T02:43:21.928Z,6.22
2022-09-30T02:46:13.595Z,6.47
2022-09-30T02:49:03.429Z,7.97
2022-09-30T02:52:02.240Z,6.60
2022-09-30T02:54:40.095Z,7.28
2022-09-30T02:57:38.905Z,7.17
2022-09-30T03:00:13.095Z,7.25
2022-09-30T03:02:44.795Z,7.17
2022-09-30T03:05:17.654Z,6.95
2022-09-30T03:07:49.765Z,6.72
2022-09-30T03:10:22.107Z,7.40
2022-09-30T03:13:08.470Z,7.17
2022-09-30T03:16:06.065Z,7.00
2022-09-30T03:19:06.436Z,6.97
2022-09-30T03:21:50.367Z,6.95
2022-09-30T03:24:59.875Z,6.62
2022-09-30T03:27:52.489Z,7.47
2022-09-30T03:30:29.055Z,7.15
2022-09-30T03:33:09.871Z,6.12
2022-09-30T03:35:59.731Z,6.60
2022-09-30T03:38:51.027Z,6.80
2022-09-30T03:41:38.268Z,6.28
2022-09-30T03:44:28.177Z,6.47
2022-09-30T03:47:05.893Z,6.08
2022-09-30T03:49:55.801Z,6.35
2022-09-30T03:52:30.408Z,6.42
2022-09-30T03:55:05.307Z,6.78
2022-09-30T03:57:37.532Z,6.40
2022-09-30T04:00:10.240Z,6.42
2022-09-30T04:02:42.482Z,7.17
2022-09-30T04:05:14.488Z,6.80
2022-09-30T04:07:47.423Z,6.80
2022-09-30T04:10:19.775Z,6.55
2022-09-30T04:12:54.910Z,6.25
2022-09-30T04:15:27.455Z,6.80
2022-09-30T04:18:00.320Z,6.72
2022-09-30T04:20:33.199Z,6.25
2022-09-30T04:23:05.233Z,6.70
2022-09-30T04:25:37.833Z,6.50
2022-09-30T04:28:09.959Z,6.75
2022-09-30T04:30:41.930Z,5.55
2022-09-30T04:33:14.133Z,6.60
2022-09-30T04:35:46.199Z,6.22
2022-09-30T04:38:18.266Z,6.20
2022-09-30T04:40:50.247Z,5.80
2022-09-30T04:43:23.599Z,5.45
2022-09-30T04:45:55.627Z,5.83
2022-09-30T04:48:29.492Z,5.78
2022-09-30T04:51:01.551Z,6.58
2022-09-30T04:53:34.770Z,6.00
2022-09-30T04:56:07.897Z,5.58
2022-09-30T04:58:40.486Z,5.90
2022-09-30T05:01:15.500Z,5.70
2022-09-30T05:03:49.073Z,5.70
2022-09-30T05:06:21.261Z,5.25
2022-09-30T05:08:53.362Z,5.22
2022-09-30T05:11:26.372Z,4.65
2022-09-30T05:13:58.608Z,5.17
2022-09-30T05:16:30.903Z,6.35
2022-09-30T05:19:03.659Z,5.50
2022-09-30T05:21:35.785Z,5.65
2022-09-30T05:24:08.016Z,5.12
2022-09-30T05:26:40.413Z,6.53
2022-09-30T05:29:12.505Z,4.90
2022-09-30T05:31:44.591Z,5.05
2022-09-30T05:34:19.623Z,5.87
2022-09-30T05:36:51.856Z,5.20
2022-09-30T05:39:24.035Z,6.17
2022-09-30T05:41:58.539Z,5.40
2022-09-30T05:44:30.480Z,5.83
2022-09-30T05:47:02.811Z,5.95
2022-09-30T05:49:35.126Z,5.03
2022-09-30T05:52:07.803Z,6.80
2022-09-30T05:54:40.408Z,6.47
2022-09-30T05:57:12.392Z,5.78
2022-09-30T05:59:44.960Z,4.85
2022-09-30T06:02:17.201Z,6.00
2022-09-30T06:04:49.167Z,5.50
2022-09-30T06:07:21.445Z,4.78
2022-09-30T06:09:53.710Z,5.33
2022-09-30T06:12:27.234Z,6.03
2022-09-30T06:14:59.502Z,5.60
2022-09-30T06:17:33.230Z,5.03
2022-09-30T06:20:05.761Z,5.00
2022-09-30T06:22:38.696Z,5.42
2022-09-30T06:25:11.022Z,4.78
2022-09-30T06:27:47.609Z,4.90
2022-09-30T06:30:19.961Z,5.00
2022-09-30T06:32:52.267Z,5.00
2022-09-30T06:35:25.035Z,5.12
2022-09-30T06:37:57.268Z,5.12
2022-09-30T06:40:29.703Z,5.45
2022-09-30T06:43:02.150Z,5.08
2022-09-30T06:45:35.742Z,5.20
2022-09-30T06:48:11.363Z,6.03
2022-09-30T06:50:53.730Z,5.28
2022-09-30T06:53:17.915Z,7.20
2022-09-30T06:55:51.411Z,5.10
2022-09-30T06:58:24.570Z,5.40
2022-09-30T07:01:02.407Z,5.30
2022-09-30T07:03:37.818Z,6.17
2022-09-30T07:06:10.161Z,6.58
2022-09-30T07:08:42.494Z,5.50
2022-09-30T07:11:17.676Z,5.87
2022-09-30T07:13:50.538Z,6.15
2022-09-30T07:16:24.627Z,5.67
2022-09-30T07:18:57.309Z,5.00
2022-09-30T07:21:31.521Z,6.05
2022-09-30T07:24:04.000Z,8.28
2022-09-30T07:26:36.470Z,6.72
2022-09-30T07:29:08.661Z,7.47
2022-09-30T07:31:41.321Z,6.70
2022-09-30T07:34:13.777Z,7.47
2022-09-30T07:36:46.034Z,6.28
2022-09-30T07:39:18.184Z,10.53
2022-09-30T07:41:50.330Z,5.70
2022-09-30T07:44:22.718Z,7.10
2022-09-30T07:46:55.068Z,5.58
2022-09-30T07:49:27.167Z,6.40
2022-09-30T07:52:00.037Z,6.03
2022-09-30T07:54:40.249Z,6.42
2022-09-30T07:57:10.446Z,8.05
2022-09-30T07:59:43.305Z,5.90
2022-09-30T08:02:20.651Z,6.70
2022-09-30T08:04:52.834Z,6.40
2022-09-30T08:07:24.787Z,6.58
2022-09-30T08:09:56.756Z,10.50
2022-09-30T08:12:28.860Z,7.35
2022-09-30T08:15:00.810Z,8.30
2022-09-30T08:17:32.963Z,7.33
2022-09-30T08:20:09.552Z,7.55
2022-09-30T08:22:39.182Z,7.70
2022-09-30T08:25:11.921Z,6.90
2022-09-30T08:27:43.906Z,7.42
2022-09-30T08:30:16.059Z,7.70
2022-09-30T08:32:48.181Z,7.53
2022-09-30T08:35:20.084Z,7.53
2022-09-30T08:37:52.138Z,7.53
2022-09-30T08:40:30.565Z,7.42
2022-09-30T08:43:11.939Z,7.35
2022-09-30T08:45:56.157Z,7.85
2022-09-30T08:48:31.070Z,7.70
2022-09-30T08:51:25.013Z,7.25
2022-09-30T08:53:59.202Z,8.45
2022-09-30T08:56:35.753Z,6.40
2022-09-30T08:59:30.392Z,8.08
2022-09-30T09:02:05.329Z,8.03
2022-09-30T09:07:39.791Z,8.50
2022-09-30T09:10:24.490Z,7.65
2022-09-30T09:13:08.421Z,7.62
2022-09-30T09:15:43.453Z,8.20
2022-09-30T09:18:30.436Z,7.72
2022-09-30T09:21:21.761Z,8.30
2022-09-30T09:23:56.738Z,8.30
2022-09-30T09:26:30.925Z,8.40
2022-09-30T09:29:15.731Z,8.38
2022-09-30T09:31:48.545Z,8.58
2022-09-30T09:34:20.885Z,8.53
2022-09-30T09:37:26.008Z,9.45
2022-09-30T09:40:04.181Z,9.03
2022-09-30T09:43:12.629Z,9.15
2022-09-30T09:46:04.004Z,9.15
2022-09-30T09:48:36.254Z,8.83
2022-09-30T09:51:16.969Z,8.75
2022-09-30T09:53:53.017Z,8.58
2022-09-30T09:56:33.454Z,9.45
2022-09-30T09:59:10.807Z,9.30
2022-09-30T10:01:46.270Z,9.70
2022-09-30T10:04:27.721Z,9.35
2022-09-30T10:07:05.364Z,8.75
2022-09-30T10:09:39.933Z,9.95
2022-09-30T10:12:18.159Z,11.65
2022-09-30T10:15:02.028Z,10.35
2022-09-30T10:17:39.686Z,9.65
2022-09-30T10:20:23.729Z,9.53
2022-09-30T10:23:11.351Z,9.48
2022-09-30T10:25:46.213Z,9.00
2022-09-30T10:28:27.258Z,10.45
2022-09-30T10:31:09.125Z,11.05
2022-09-30T10:33:47.333Z,10.35
2022-09-30T10:36:22.094Z,10.75
2022-09-30T10:39:03.968Z,10.72
2022-09-30T10:41:36.755Z,9.93
2022-09-30T10:44:17.853Z,10.28
2022-09-30T10:46:54.839Z,10.53
2022-09-30T10:49:32.615Z,9.58
2022-09-30T10:52:05.069Z,9.25
2022-09-30T10:54:43.134Z,10.50
2022-09-30T10:57:33.037Z,9.48
2022-09-30T11:00:17.416Z,10.00
2022-09-30T11:03:02.252Z,10.32
2022-09-30T11:08:21.611Z,10.75
2022-09-30T11:11:09.521Z,10.00
2022-09-30T11:13:54.764Z,9.58
2022-09-30T11:16:32.064Z,10.05
2022-09-30T11:19:19.402Z,10.03
2022-09-30T11:21:54.570Z,10.00
2022-09-30T11:24:32.487Z,10.50
2022-09-30T11:27:13.622Z,10.55
2022-09-30T11:29:51.669Z,11.83
2022-09-30T11:32:35.560Z,8.75
2022-09-30T11:35:13.457Z,8.73
2022-09-30T11:37:57.106Z,8.58
2022-09-30T11:40:44.132Z,8.23
2022-09-30T11:43:30.933Z,8.20
2022-09-30T11:46:22.124Z,8.68
2022-09-30T11:49:15.459Z,8.63
2022-09-30T11:52:05.978Z,9.93
2022-09-30T11:55:02.035Z,10.23
2022-09-30T11:57:37.155Z,10.30
2022-09-30T12:00:12.212Z,10.23
2022-09-30T12:02:53.550Z,10.55
2022-09-30T12:05:40.317Z,9.18
2022-09-30T12:08:21.262Z,10.43
2022-09-30T12:10:59.362Z,9.70
2022-09-30T12:13:36.507Z,10.20
2022-09-30T12:16:11.865Z,10.10
2022-09-30T12:18:49.996Z,9.63
2022-09-30T12:21:28.151Z,9.63
2022-09-30T12:24:24.701Z,8.90
2022-09-30T12:26:57.243Z,10.28
2022-09-30T12:29:45.742Z,9.23
2022-09-30T12:32:40.822Z,9.18
2022-09-30T12:35:43.062Z,8.95
2022-09-30T12:38:43.606Z,9.45
2022-09-30T12:41:34.183Z,9.18
2022-09-30T12:44:12.139Z,8.80
2022-09-30T12:46:59.016Z,9.50
2022-09-30T12:49:33.677Z,9.35
2022-09-30T12:52:08.931Z,9.75
2022-09-30T12:54:53.100Z,9.68
2022-09-30T12:57:34.336Z,9.05
2022-09-30T13:00:09.617Z,9.33
2022-09-30T13:02:44.949Z,8.75
2022-09-30T13:05:35.055Z,8.70
2022-09-30T13:08:11.334Z,9.35
2022-09-30T13:10:48.704Z,9.08
2022-09-30T13:13:35.176Z,9.35
2022-09-30T13:16:07.674Z,10.28
2022-09-30T13:18:42.653Z,9.28
2022-09-30T13:21:23.170Z,8.13
2022-09-30T13:23:57.681Z,9.05
2022-09-30T13:26:33.091Z,9.15
2022-09-30T13:29:17.401Z,8.95
2022-09-30T13:31:56.499Z,9.08
2022-09-30T13:34:36.570Z,9.38
2022-09-30T13:37:11.677Z,8.48
2022-09-30T13:39:52.634Z,8.35
2022-09-30T13:42:30.579Z,8.65
2022-09-30T13:45:08.949Z,9.25
2022-09-30T13:47:43.828Z,8.75
2022-09-30T13:50:24.677Z,7.95
2022-09-30T13:53:05.628Z,8.98
2022-09-30T13:55:40.768Z,8.33
2022-09-30T13:58:33.905Z,10.38
2022-09-30T14:01:27.054Z,8.85
2022-09-30T14:04:33.577Z,9.88
2022-09-30T14:07:16.524Z,8.18
2022-09-30T14:10:08.411Z,8.53
2022-09-30T14:12:52.381Z,8.90
2022-09-30T14:15:39.360Z,8.58
2022-09-30T14:18:23.261Z,8.38
2022-09-30T14:21:14.852Z,7.65
2022-09-30T14:23:47.055Z,8.23
2022-09-30T14:26:40.069Z,8.33
2022-09-30T14:29:39.009Z,8.53
2022-09-30T14:32:18.716Z,9.73
2022-09-30T14:34:52.168Z,8.90
2022-09-30T14:37:36.400Z,9.88
2022-09-30T14:40:13.112Z,10.20
2022-09-30T14:42:48.251Z,10.30
2022-09-30T14:45:29.613Z,8.73
2022-09-30T14:48:05.222Z,10.25
2022-09-30T14:50:40.906Z,10.13
2022-09-30T14:53:28.687Z,8.95
2022-09-30T14:56:02.884Z,8.65
2022-09-30T14:58:45.389Z,8.90
2022-09-30T15:01:26.444Z,8.28
2022-09-30T15:04:02.149Z,9.25
2022-09-30T15:06:37.104Z,9.83
2022-09-30T15:09:35.769Z,9.58
2022-09-30T15:12:14.007Z,9.45
2022-09-30T15:14:54.656Z,10.00
2022-09-30T15:17:29.903Z,10.35
2022-09-30T15:20:02.897Z,9.95
2022-09-30T15:22:35.855Z,9.63
2022-09-30T15:25:14.010Z,10.10
2022-09-30T15:27:46.511Z,9.60
2022-09-30T15:30:22.399Z,9.65
2022-09-30T15:33:06.713Z,9.10
2022-09-30T15:35:39.177Z,8.95
2022-09-30T15:38:26.162Z,8.48
2022-09-30T15:41:04.968Z,9.08
2022-09-30T15:43:50.965Z,9.70
2022-09-30T15:46:33.933Z,9.60
2022-09-30T15:49:09.312Z,8.25
2022-09-30T15:51:44.843Z,7.83
2022-09-30T15:54:33.128Z,8.63
2022-09-30T15:57:08.841Z,8.55
2022-09-30T16:00:04.883Z,9.10
2022-09-30T16:02:40.349Z,9.63
2022-09-30T16:05:11.970Z,9.23
2022-09-30T16:07:45.405Z,8.93
2022-09-30T16:10:22.330Z,8.73
2022-09-30T16:12:55.659Z,9.10
2022-09-30T16:15:28.577Z,9.10
2022-09-30T16:18:03.982Z,8.80
2022-09-30T16:20:35.945Z,9.73
2022-09-30T16:23:11.225Z,9.35
2022-09-30T16:25:44.875Z,9.25
2022-09-30T16:28:18.230Z,10.10
2022-09-30T16:30:54.716Z,10.53
2022-09-30T16:33:27.232Z,10.00
2022-09-30T16:36:02.761Z,9.65
2022-09-30T16:38:35.548Z,10.03
2022-09-30T16:41:09.762Z,10.38
2022-09-30T16:43:43.944Z,10.68
2022-09-30T16:46:20.127Z,9.45
2022-09-30T16:48:55.100Z,9.60
2022-09-30T16:51:27.972Z,9.90
2022-09-30T16:54:00.776Z,9.60
2022-09-30T16:56:35.103Z,11.68
2022-09-30T16:59:19.365Z,10.05
2022-09-30T17:01:52.356Z,9.00
2022-09-30T17:04:25.455Z,9.80
2022-09-30T17:07:00.342Z,10.93
2022-09-30T17:09:33.010Z,9.23
2022-09-30T17:12:06.795Z,9.60
2022-09-30T17:14:39.177Z,10.20
2022-09-30T17:17:14.113Z,9.68
2022-09-30T17:19:47.320Z,10.90
2022-09-30T17:22:19.768Z,9.08
2022-09-30T17:24:52.552Z,9.43
2022-09-30T17:27:25.581Z,10.20
2022-09-30T17:29:58.487Z,10.38
2022-09-30T17:32:32.639Z,9.58
2022-09-30T17:35:07.382Z,8.75
2022-09-30T17:40:28.183Z,9.18
2022-09-30T17:43:11.328Z,10.23
2022-09-30T17:45:46.699Z,10.15
2022-09-30T17:48:21.003Z,10.03
2022-09-30T17:50:54.903Z,10.38
2022-09-30T17:53:29.346Z,9.60
2022-09-30T17:56:11.871Z,9.65
2022-09-30T17:58:48.022Z,9.48
2022-09-30T18:01:22.459Z,9.78
2022-09-30T18:03:56.631Z,9.90
2022-09-30T18:06:36.274Z,8.55
2022-09-30T18:11:39.299Z,9.78
2022-09-30T18:14:11.057Z,8.55
2022-09-30T18:16:44.470Z,8.20
2022-09-30T18:19:16.622Z,8.50
2022-09-30T18:21:49.221Z,9.50
2022-09-30T18:24:22.962Z,9.38
2022-09-30T18:26:55.532Z,8.73
2022-09-30T18:29:28.479Z,8.58
2022-09-30T18:32:01.163Z,8.38
2022-09-30T18:34:34.848Z,8.80
2022-09-30T18:37:07.518Z,9.23
2022-09-30T18:39:40.347Z,9.08
2022-09-30T18:42:13.267Z,10.10
2022-09-30T18:44:46.183Z,9.15
2022-09-30T18:47:19.430Z,10.58
2022-09-30T18:49:51.716Z,10.65
2022-09-30T18:52:23.974Z,9.53
2022-09-30T18:54:55.950Z,9.63
2022-09-30T18:57:28.413Z,11.10
2022-09-30T19:00:02.115Z,10.53
2022-09-30T19:02:34.624Z,10.38
2022-09-30T19:05:08.375Z,10.80
2022-09-30T19:07:40.680Z,10.77
2022-09-30T19:10:13.215Z,11.12
2022-09-30T19:12:45.507Z,11.12
2022-09-30T19:15:17.882Z,10.25
2022-09-30T19:17:51.131Z,10.85
2022-09-30T19:20:23.509Z,10.85
2022-09-30T19:22:56.152Z,11.15
2022-09-30T19:25:28.489Z,11.05
2022-09-30T19:28:01.970Z,10.75
2022-09-30T19:30:34.579Z,10.85
2022-09-30T19:33:07.171Z,10.85
2022-09-30T19:35:41.090Z,10.63
2022-09-30T19:38:14.149Z,11.75
2022-09-30T19:40:46.428Z,10.95
2022-09-30T19:43:19.556Z,11.38
2022-09-30T19:45:58.535Z,10.38
2022-09-30T19:48:35.211Z,10.93
2022-09-30T19:51:10.528Z,9.88
2022-09-30T19:53:50.575Z,10.98
2022-09-30T19:56:23.723Z,9.65
2022-09-30T19:58:57.998Z,10.30
2022-09-30T20:01:31.364Z,10.63
2022-09-30T20:04:05.828Z,10.98
2022-09-30T20:06:38.547Z,9.48
2022-09-30T20:09:10.803Z,11.48
2022-09-30T20:11:45.624Z,10.50
2022-09-30T20:14:35.581Z,13.03
2022-09-30T20:17:07.940Z,13.80
2022-09-30T20:19:40.280Z,11.55
2022-09-30T20:22:15.401Z,11.25
2022-09-30T20:24:48.476Z,11.75
2022-09-30T20:27:21.140Z,11.50
2022-09-30T20:29:53.612Z,11.28
2022-09-30T20:32:28.826Z,11.88
2022-09-30T20:35:00.952Z,11.73
2022-09-30T20:37:33.219Z,12.82
2022-09-30T20:40:06.106Z,12.00
2022-09-30T20:42:41.704Z,12.98
2022-09-30T20:45:15.579Z,12.00
2022-09-30T20:47:48.506Z,11.28
2022-09-30T20:50:22.919Z,12.37
2022-09-30T20:52:55.114Z,12.35
2022-09-30T20:55:27.203Z,13.15
2022-09-30T20:57:59.633Z,12.45
2022-09-30T21:00:32.976Z,12.18
2022-09-30T21:03:05.771Z,11.68
2022-09-30T21:05:38.511Z,12.37
2022-09-30T21:08:11.052Z,12.23
2022-09-30T21:10:43.237Z,13.03
2022-09-30T21:13:15.303Z,14.47
2022-09-30T21:15:47.487Z,15.10
2022-09-30T21:18:19.643Z,11.22
2022-09-30T21:20:58.886Z,11.33
2022-09-30T21:23:33.474Z,11.68
2022-09-30T21:28:38.124Z,10.75
2022-09-30T21:31:13.706Z,11.35
2022-09-30T21:33:47.904Z,10.93
2022-09-30T21:36:21.366Z,10.95
2022-09-30T21:38:55.055Z,10.28
2022-09-30T21:41:27.583Z,11.08
2022-09-30T21:44:00.763Z,11.15
2022-09-30T21:46:32.867Z,11.63
2022-09-30T21:49:10.305Z,10.85
2022-09-30T21:51:42.487Z,11.28
2022-09-30T21:54:14.968Z,10.98
2022-09-30T21:56:49.654Z,12.03
2022-09-30T21:59:22.705Z,11.05
2022-09-30T22:01:55.082Z,11.90
2022-09-30T22:04:27.182Z,11.40
2022-09-30T22:06:59.491Z,11.83
2022-09-30T22:09:37.181Z,11.28
2022-09-30T22:14:38.842Z,11.78
2022-09-30T22:17:10.815Z,11.85
2022-09-30T22:19:43.130Z,11.30
2022-09-30T22:22:15.078Z,10.98
2022-09-30T22:24:48.144Z,12.68
2022-09-30T22:27:20.992Z,11.38
2022-09-30T22:29:52.886Z,12.30
2022-09-30T22:32:24.890Z,11.03
2022-09-30T22:35:14.682Z,9.78
2022-09-30T22:38:09.203Z,10.50
2022-09-30T22:40:41.374Z,11.12
2022-09-30T22:43:13.654Z,10.60
2022-09-30T22:45:45.876Z,11.25
2022-09-30T22:48:18.439Z,10.45
2022-09-30T22:50:50.543Z,10.60
2022-09-30T22:53:22.814Z,10.48
2022-09-30T22:55:55.443Z,9.88
2022-09-30T22:58:28.332Z,9.68
2022-09-30T23:01:00.554Z,9.25
2022-09-30T23:03:32.950Z,10.60
2022-09-30T23:06:06.512Z,10.03
2022-09-30T23:08:43.031Z,8.87
2022-09-30T23:11:20.010Z,9.10
2022-09-30T23:13:58.798Z,9.20
2022-09-30T23:16:27.523Z,9.68
2022-09-30T23:18:59.632Z,8.73
2022-09-30T23:21:33.932Z,9.35
2022-09-30T23:26:37.488Z,8.18
2022-09-30T23:29:12.417Z,9.30
2022-09-30T23:31:44.431Z,8.93
2022-09-30T23:34:17.441Z,8.65
2022-09-30T23:36:49.716Z,9.00
2022-09-30T23:39:21.972Z,8.23
2022-09-30T23:41:54.323Z,8.90
2022-09-30T23:44:28.195Z,11.25
2022-09-30T23:47:18.363Z,9.43
2022-09-30T23:49:51.017Z,9.60
2022-09-30T23:52:22.962Z,9.58
2022-09-30T23:54:55.150Z,8.65
2022-09-30T23:57:27.458Z,8.18
2022-09-30T23:59:59.539Z,8.78
